sensor_id;sensor_type;location;lat;lon;timestamp;P1;durP1;ratioP1;P2;durP2;ratioP2
18820;SDS011;9539;59.332;18.034;2023-04-03T00:01:00;5.75;;;1.88;;
18820;SDS011;9539;59.332;18.034;2023-04-03T00:03:22;7.95;;;2.33;;
18820;SDS011;9539;59.332;18.034;2023-04-03T00:05:44;7.00;;;2.08;;
18820;SDS011;9539;59.332;18.034;2023-04-03T00:08:05;8.48;;;2.30;;
18820;SDS011;9539;59.332;18.034;2023-04-03T00:10:31;9.98;;;2.30;;
18820;SDS011;9539;59.332;18.034;2023-04-03T00:12:52;10.23;;;2.45;;
18820;SDS011;9539;59.332;18.034;2023-04-03T00:15:14;7.57;;;2.00;;
18820;SDS011;9539;59.332;18.034;2023-04-03T00:17:35;12.38;;;2.53;;
18820;SDS011;9539;59.332;18.034;2023-04-03T00:19:57;11.32;;;2.90;;
18820;SDS011;9539;59.332;18.034;2023-04-03T00:22:19;8.20;;;2.40;;
18820;SDS011;9539;59.332;18.034;2023-04-03T00:24:40;8.80;;;2.50;;
18820;SDS011;9539;59.332;18.034;2023-04-03T00:27:03;13.27;;;2.67;;
18820;SDS011;9539;59.332;18.034;2023-04-03T00:29:25;10.63;;;3.03;;
18820;SDS011;9539;59.332;18.034;2023-04-03T00:31:47;10.05;;;2.22;;
18820;SDS011;9539;59.332;18.034;2023-04-03T00:34:08;6.55;;;2.08;;
18820;SDS011;9539;59.332;18.034;2023-04-03T00:36:30;7.63;;;2.33;;
18820;SDS011;9539;59.332;18.034;2023-04-03T00:38:51;9.73;;;1.98;;
18820;SDS011;9539;59.332;18.034;2023-04-03T00:41:13;11.05;;;2.25;;
18820;SDS011;9539;59.332;18.034;2023-04-03T00:43:36;6.20;;;2.03;;
18820;SDS011;9539;59.332;18.034;2023-04-03T00:45:58;4.80;;;2.30;;
18820;SDS011;9539;59.332;18.034;2023-04-03T00:48:20;9.63;;;2.40;;
18820;SDS011;9539;59.332;18.034;2023-04-03T00:50:42;11.70;;;2.50;;
18820;SDS011;9539;59.332;18.034;2023-04-03T00:53:05;8.02;;;2.25;;
18820;SDS011;9539;59.332;18.034;2023-04-03T00:55:27;6.22;;;1.88;;
18820;SDS011;9539;59.332;18.034;2023-04-03T00:57:50;12.43;;;2.50;;
18820;SDS011;9539;59.332;18.034;2023-04-03T01:00:14;7.75;;;1.92;;
18820;SDS011;9539;59.332;18.034;2023-04-03T01:02:37;6.63;;;1.92;;
18820;SDS011;9539;59.332;18.034;2023-04-03T01:05:00;5.30;;;2.17;;
18820;SDS011;9539;59.332;18.034;2023-04-03T01:07:23;7.60;;;1.98;;
18820;SDS011;9539;59.332;18.034;2023-04-03T01:09:45;4.90;;;2.30;;
18820;SDS011;9539;59.332;18.034;2023-04-03T01:12:14;8.57;;;2.05;;
18820;SDS011;9539;59.332;18.034;2023-04-03T01:14:36;9.10;;;2.15;;
18820;SDS011;9539;59.332;18.034;2023-04-03T01:16:59;5.40;;;2.30;;
18820;SDS011;9539;59.332;18.034;2023-04-03T01:19:21;8.00;;;1.92;;
18820;SDS011;9539;59.332;18.034;2023-04-03T01:21:54;6.82;;;2.30;;
18820;SDS011;9539;59.332;18.034;2023-04-03T01:24:21;6.97;;;2.05;;
18820;SDS011;9539;59.332;18.034;2023-04-03T01:26:43;7.90;;;2.13;;
18820;SDS011;9539;59.332;18.034;2023-04-03T01:29:05;3.55;;;1.88;;
18820;SDS011;9539;59.332;18.034;2023-04-03T01:31:28;8.68;;;2.47;;
18820;SDS011;9539;59.332;18.034;2023-04-03T01:33:53;8.98;;;2.17;;
18820;SDS011;9539;59.332;18.034;2023-04-03T01:36:16;10.52;;;2.20;;
18820;SDS011;9539;59.332;18.034;2023-04-03T01:38:38;10.80;;;2.35;;
18820;SDS011;9539;59.332;18.034;2023-04-03T01:40:59;8.23;;;2.22;;
18820;SDS011;9539;59.332;18.034;2023-04-03T01:43:21;10.13;;;1.90;;
18820;SDS011;9539;59.332;18.034;2023-04-03T01:45:43;6.95;;;2.35;;
18820;SDS011;9539;59.332;18.034;2023-04-03T01:48:04;6.10;;;2.17;;
18820;SDS011;9539;59.332;18.034;2023-04-03T01:50:27;8.95;;;2.55;;
18820;SDS011;9539;59.332;18.034;2023-04-03T01:52:49;6.75;;;2.10;;
18820;SDS011;9539;59.332;18.034;2023-04-03T01:55:11;6.20;;;1.88;;
18820;SDS011;9539;59.332;18.034;2023-04-03T01:57:32;6.00;;;2.03;;
18820;SDS011;9539;59.332;18.034;2023-04-03T01:59:54;6.30;;;2.40;;
18820;SDS011;9539;59.332;18.034;2023-04-03T02:02:15;9.30;;;2.35;;
18820;SDS011;9539;59.332;18.034;2023-04-03T02:04:37;8.55;;;2.45;;
18820;SDS011;9539;59.332;18.034;2023-04-03T02:07:00;10.52;;;2.00;;
18820;SDS011;9539;59.332;18.034;2023-04-03T02:09:22;5.07;;;2.10;;
18820;SDS011;9539;59.332;18.034;2023-04-03T02:11:43;8.65;;;2.38;;
18820;SDS011;9539;59.332;18.034;2023-04-03T02:14:05;6.30;;;2.00;;
18820;SDS011;9539;59.332;18.034;2023-04-03T02:16:27;10.00;;;2.10;;
18820;SDS011;9539;59.332;18.034;2023-04-03T02:18:49;8.52;;;1.98;;
18820;SDS011;9539;59.332;18.034;2023-04-03T02:21:11;6.65;;;1.90;;
18820;SDS011;9539;59.332;18.034;2023-04-03T02:23:34;7.57;;;2.33;;
18820;SDS011;9539;59.332;18.034;2023-04-03T02:26:04;11.57;;;2.10;;
18820;SDS011;9539;59.332;18.034;2023-04-03T02:28:26;8.23;;;1.88;;
18820;SDS011;9539;59.332;18.034;2023-04-03T02:30:47;7.13;;;2.03;;
18820;SDS011;9539;59.332;18.034;2023-04-03T02:33:09;10.60;;;2.35;;
18820;SDS011;9539;59.332;18.034;2023-04-03T02:35:31;8.40;;;2.13;;
18820;SDS011;9539;59.332;18.034;2023-04-03T02:37:52;6.43;;;2.10;;
18820;SDS011;9539;59.332;18.034;2023-04-03T02:40:15;8.23;;;2.10;;
18820;SDS011;9539;59.332;18.034;2023-04-03T02:42:37;8.90;;;2.25;;
18820;SDS011;9539;59.332;18.034;2023-04-03T02:44:59;6.15;;;2.10;;
18820;SDS011;9539;59.332;18.034;2023-04-03T02:47:21;5.53;;;1.92;;
18820;SDS011;9539;59.332;18.034;2023-04-03T02:49:43;8.65;;;1.95;;
18820;SDS011;9539;59.332;18.034;2023-04-03T02:52:06;13.10;;;1.90;;
18820;SDS011;9539;59.332;18.034;2023-04-03T02:54:27;15.52;;;2.53;;
18820;SDS011;9539;59.332;18.034;2023-04-03T02:56:52;8.20;;;1.95;;
18820;SDS011;9539;59.332;18.034;2023-04-03T02:59:13;7.80;;;2.17;;
18820;SDS011;9539;59.332;18.034;2023-04-03T03:01:35;12.10;;;2.40;;
18820;SDS011;9539;59.332;18.034;2023-04-03T03:03:56;5.50;;;2.10;;
18820;SDS011;9539;59.332;18.034;2023-04-03T03:06:18;8.48;;;2.30;;
18820;SDS011;9539;59.332;18.034;2023-04-03T03:08:40;7.85;;;2.05;;
18820;SDS011;9539;59.332;18.034;2023-04-03T03:11:02;11.57;;;2.28;;
18820;SDS011;9539;59.332;18.034;2023-04-03T03:13:25;11.25;;;2.00;;
18820;SDS011;9539;59.332;18.034;2023-04-03T03:15:46;11.88;;;2.28;;
18820;SDS011;9539;59.332;18.034;2023-04-03T03:18:08;10.70;;;2.63;;
18820;SDS011;9539;59.332;18.034;2023-04-03T03:20:30;11.82;;;2.13;;
18820;SDS011;9539;59.332;18.034;2023-04-03T03:22:51;4.97;;;1.80;;
18820;SDS011;9539;59.332;18.034;2023-04-03T03:25:13;5.68;;;1.92;;
18820;SDS011;9539;59.332;18.034;2023-04-03T03:27:35;6.40;;;2.13;;
18820;SDS011;9539;59.332;18.034;2023-04-03T03:29:58;8.38;;;2.28;;
18820;SDS011;9539;59.332;18.034;2023-04-03T03:32:19;6.57;;;2.28;;
18820;SDS011;9539;59.332;18.034;2023-04-03T03:34:41;6.40;;;1.85;;
18820;SDS011;9539;59.332;18.034;2023-04-03T03:37:02;11.18;;;2.25;;
18820;SDS011;9539;59.332;18.034;2023-04-03T03:39:24;10.82;;;2.30;;
18820;SDS011;9539;59.332;18.034;2023-04-03T03:41:45;9.50;;;2.65;;
18820;SDS011;9539;59.332;18.034;2023-04-03T03:44:07;9.75;;;2.17;;
18820;SDS011;9539;59.332;18.034;2023-04-03T03:46:30;9.50;;;2.10;;
18820;SDS011;9539;59.332;18.034;2023-04-03T03:48:52;10.00;;;1.85;;
18820;SDS011;9539;59.332;18.034;2023-04-03T03:51:13;11.07;;;2.28;;
18820;SDS011;9539;59.332;18.034;2023-04-03T03:53:35;9.93;;;2.40;;
18820;SDS011;9539;59.332;18.034;2023-04-03T03:55:57;6.35;;;2.33;;
18820;SDS011;9539;59.332;18.034;2023-04-03T03:58:18;6.43;;;2.00;;
18820;SDS011;9539;59.332;18.034;2023-04-03T04:00:40;10.40;;;2.10;;
18820;SDS011;9539;59.332;18.034;2023-04-03T04:03:03;10.07;;;2.05;;
18820;SDS011;9539;59.332;18.034;2023-04-03T04:05:24;13.80;;;2.00;;
18820;SDS011;9539;59.332;18.034;2023-04-03T04:07:46;8.45;;;2.20;;
18820;SDS011;9539;59.332;18.034;2023-04-03T04:10:08;15.82;;;2.60;;
18820;SDS011;9539;59.332;18.034;2023-04-03T04:12:30;8.52;;;2.90;;
18820;SDS011;9539;59.332;18.034;2023-04-03T04:14:51;10.63;;;2.30;;
18820;SDS011;9539;59.332;18.034;2023-04-03T04:17:13;6.35;;;1.90;;
18820;SDS011;9539;59.332;18.034;2023-04-03T04:19:36;16.38;;;2.38;;
18820;SDS011;9539;59.332;18.034;2023-04-03T04:21:58;8.70;;;2.17;;
18820;SDS011;9539;59.332;18.034;2023-04-03T04:24:19;13.63;;;2.65;;
18820;SDS011;9539;59.332;18.034;2023-04-03T04:26:42;8.25;;;2.42;;
18820;SDS011;9539;59.332;18.034;2023-04-03T04:29:04;8.15;;;2.17;;
18820;SDS011;9539;59.332;18.034;2023-04-03T04:31:25;6.97;;;2.03;;
18820;SDS011;9539;59.332;18.034;2023-04-03T04:33:47;13.05;;;2.38;;
18820;SDS011;9539;59.332;18.034;2023-04-03T04:36:10;11.27;;;2.40;;
18820;SDS011;9539;59.332;18.034;2023-04-03T04:38:32;10.50;;;2.65;;
18820;SDS011;9539;59.332;18.034;2023-04-03T04:40:53;12.10;;;2.33;;
18820;SDS011;9539;59.332;18.034;2023-04-03T04:43:15;11.70;;;2.55;;
18820;SDS011;9539;59.332;18.034;2023-04-03T04:45:37;8.63;;;2.42;;
18820;SDS011;9539;59.332;18.034;2023-04-03T04:47:58;10.38;;;2.53;;
18820;SDS011;9539;59.332;18.034;2023-04-03T04:50:20;5.38;;;2.10;;
18820;SDS011;9539;59.332;18.034;2023-04-03T04:52:43;8.38;;;1.90;;
18820;SDS011;9539;59.332;18.034;2023-04-03T04:55:05;10.18;;;2.03;;
18820;SDS011;9539;59.332;18.034;2023-04-03T04:57:27;6.45;;;2.08;;
18820;SDS011;9539;59.332;18.034;2023-04-03T04:59:48;11.50;;;2.83;;
18820;SDS011;9539;59.332;18.034;2023-04-03T05:02:10;12.98;;;2.50;;
18820;SDS011;9539;59.332;18.034;2023-04-03T05:04:32;13.45;;;2.15;;
18820;SDS011;9539;59.332;18.034;2023-04-03T05:06:53;10.05;;;2.13;;
18820;SDS011;9539;59.332;18.034;2023-04-03T05:09:16;10.77;;;2.60;;
18820;SDS011;9539;59.332;18.034;2023-04-03T05:11:40;9.20;;;2.42;;
18820;SDS011;9539;59.332;18.034;2023-04-03T05:14:02;8.73;;;2.28;;
18820;SDS011;9539;59.332;18.034;2023-04-03T05:16:25;8.95;;;2.40;;
18820;SDS011;9539;59.332;18.034;2023-04-03T05:18:47;10.75;;;2.30;;
18820;SDS011;9539;59.332;18.034;2023-04-03T05:21:08;10.93;;;2.40;;
18820;SDS011;9539;59.332;18.034;2023-04-03T05:23:30;13.07;;;2.22;;
18820;SDS011;9539;59.332;18.034;2023-04-03T05:25:53;9.32;;;3.03;;
18820;SDS011;9539;59.332;18.034;2023-04-03T05:28:14;23.73;;;2.63;;
18820;SDS011;9539;59.332;18.034;2023-04-03T05:30:36;14.55;;;3.22;;
18820;SDS011;9539;59.332;18.034;2023-04-03T05:32:58;13.05;;;2.55;;
18820;SDS011;9539;59.332;18.034;2023-04-03T05:35:19;19.95;;;2.63;;
18820;SDS011;9539;59.332;18.034;2023-04-03T05:37:41;16.30;;;2.75;;
18820;SDS011;9539;59.332;18.034;2023-04-03T05:40:03;10.60;;;2.63;;
18820;SDS011;9539;59.332;18.034;2023-04-03T05:42:26;8.55;;;2.50;;
18820;SDS011;9539;59.332;18.034;2023-04-03T05:44:48;10.70;;;2.90;;
18820;SDS011;9539;59.332;18.034;2023-04-03T05:47:10;10.13;;;2.40;;
18820;SDS011;9539;59.332;18.034;2023-04-03T05:49:32;13.95;;;2.45;;
18820;SDS011;9539;59.332;18.034;2023-04-03T05:51:54;7.95;;;2.50;;
18820;SDS011;9539;59.332;18.034;2023-04-03T05:54:16;10.40;;;2.55;;
18820;SDS011;9539;59.332;18.034;2023-04-03T05:56:39;15.93;;;2.40;;
18820;SDS011;9539;59.332;18.034;2023-04-03T05:59:01;23.15;;;2.95;;
18820;SDS011;9539;59.332;18.034;2023-04-03T06:01:23;9.13;;;2.42;;
18820;SDS011;9539;59.332;18.034;2023-04-03T06:03:45;18.38;;;2.67;;
18820;SDS011;9539;59.332;18.034;2023-04-03T06:06:06;6.75;;;2.40;;
18820;SDS011;9539;59.332;18.034;2023-04-03T06:08:28;16.58;;;2.78;;
18820;SDS011;9539;59.332;18.034;2023-04-03T06:10:50;8.63;;;2.22;;
18820;SDS011;9539;59.332;18.034;2023-04-03T06:13:12;7.30;;;2.25;;
18820;SDS011;9539;59.332;18.034;2023-04-03T06:15:36;10.20;;;2.08;;
18820;SDS011;9539;59.332;18.034;2023-04-03T06:17:58;6.43;;;2.30;;
18820;SDS011;9539;59.332;18.034;2023-04-03T06:20:19;9.88;;;1.92;;
18820;SDS011;9539;59.332;18.034;2023-04-03T06:22:42;9.95;;;2.75;;
18820;SDS011;9539;59.332;18.034;2023-04-03T06:25:04;10.43;;;2.30;;
18820;SDS011;9539;59.332;18.034;2023-04-03T06:27:26;12.00;;;2.30;;
18820;SDS011;9539;59.332;18.034;2023-04-03T06:29:48;11.20;;;2.22;;
18820;SDS011;9539;59.332;18.034;2023-04-03T06:32:11;14.15;;;2.25;;
18820;SDS011;9539;59.332;18.034;2023-04-03T06:34:33;13.90;;;2.75;;
18820;SDS011;9539;59.332;18.034;2023-04-03T06:36:55;8.65;;;2.10;;
18820;SDS011;9539;59.332;18.034;2023-04-03T06:39:18;15.43;;;2.53;;
18820;SDS011;9539;59.332;18.034;2023-04-03T06:41:41;12.07;;;2.40;;
18820;SDS011;9539;59.332;18.034;2023-04-03T06:44:02;9.60;;;2.47;;
18820;SDS011;9539;59.332;18.034;2023-04-03T06:46:25;14.57;;;2.40;;
18820;SDS011;9539;59.332;18.034;2023-04-03T06:48:49;10.55;;;2.50;;
18820;SDS011;9539;59.332;18.034;2023-04-03T06:51:14;16.25;;;2.53;;
18820;SDS011;9539;59.332;18.034;2023-04-03T06:53:36;9.75;;;3.00;;
18820;SDS011;9539;59.332;18.034;2023-04-03T06:55:58;11.60;;;2.10;;
18820;SDS011;9539;59.332;18.034;2023-04-03T06:58:19;5.30;;;1.80;;
18820;SDS011;9539;59.332;18.034;2023-04-03T07:00:42;14.13;;;2.60;;
18820;SDS011;9539;59.332;18.034;2023-04-03T07:03:03;9.40;;;2.30;;
18820;SDS011;9539;59.332;18.034;2023-04-03T07:05:26;10.32;;;2.03;;
18820;SDS011;9539;59.332;18.034;2023-04-03T07:07:48;11.55;;;2.22;;
18820;SDS011;9539;59.332;18.034;2023-04-03T07:10:11;16.27;;;2.42;;
18820;SDS011;9539;59.332;18.034;2023-04-03T07:12:33;6.38;;;2.20;;
18820;SDS011;9539;59.332;18.034;2023-04-03T07:14:54;5.57;;;2.10;;
18820;SDS011;9539;59.332;18.034;2023-04-03T07:17:16;12.07;;;2.72;;
18820;SDS011;9539;59.332;18.034;2023-04-03T07:19:37;8.18;;;2.03;;
18820;SDS011;9539;59.332;18.034;2023-04-03T07:22:00;8.48;;;2.17;;
18820;SDS011;9539;59.332;18.034;2023-04-03T07:24:22;13.35;;;2.28;;
18820;SDS011;9539;59.332;18.034;2023-04-03T07:26:44;16.70;;;2.45;;
18820;SDS011;9539;59.332;18.034;2023-04-03T07:29:06;11.13;;;2.40;;
18820;SDS011;9539;59.332;18.034;2023-04-03T07:31:27;14.45;;;2.78;;
18820;SDS011;9539;59.332;18.034;2023-04-03T07:33:49;10.45;;;2.45;;
18820;SDS011;9539;59.332;18.034;2023-04-03T07:36:14;13.20;;;2.92;;
18820;SDS011;9539;59.332;18.034;2023-04-03T07:38:37;5.53;;;1.95;;
18820;SDS011;9539;59.332;18.034;2023-04-03T07:40:59;9.15;;;2.38;;
18820;SDS011;9539;59.332;18.034;2023-04-03T07:43:22;41.35;;;4.05;;
18820;SDS011;9539;59.332;18.034;2023-04-03T07:45:44;13.57;;;2.40;;
18820;SDS011;9539;59.332;18.034;2023-04-03T07:48:07;9.05;;;1.92;;
18820;SDS011;9539;59.332;18.034;2023-04-03T07:50:28;7.93;;;1.88;;
18820;SDS011;9539;59.332;18.034;2023-04-03T07:52:51;7.50;;;1.90;;
18820;SDS011;9539;59.332;18.034;2023-04-03T07:55:16;17.17;;;2.05;;
18820;SDS011;9539;59.332;18.034;2023-04-03T07:57:37;6.43;;;2.00;;
18820;SDS011;9539;59.332;18.034;2023-04-03T08:00:00;5.90;;;1.85;;
18820;SDS011;9539;59.332;18.034;2023-04-03T08:02:22;8.35;;;1.70;;
18820;SDS011;9539;59.332;18.034;2023-04-03T08:04:43;4.82;;;1.73;;
18820;SDS011;9539;59.332;18.034;2023-04-03T08:07:05;15.45;;;1.95;;
18820;SDS011;9539;59.332;18.034;2023-04-03T08:09:27;10.73;;;1.88;;
18820;SDS011;9539;59.332;18.034;2023-04-03T08:11:50;32.88;;;3.15;;
18820;SDS011;9539;59.332;18.034;2023-04-03T08:14:13;8.18;;;2.22;;
18820;SDS011;9539;59.332;18.034;2023-04-03T08:16:36;13.60;;;2.42;;
18820;SDS011;9539;59.332;18.034;2023-04-03T08:18:58;7.93;;;2.13;;
18820;SDS011;9539;59.332;18.034;2023-04-03T08:21:19;41.55;;;4.13;;
18820;SDS011;9539;59.332;18.034;2023-04-03T08:23:41;20.58;;;2.92;;
18820;SDS011;9539;59.332;18.034;2023-04-03T08:26:06;13.57;;;2.30;;
18820;SDS011;9539;59.332;18.034;2023-04-03T08:28:29;13.40;;;2.45;;
18820;SDS011;9539;59.332;18.034;2023-04-03T08:30:51;11.60;;;2.83;;
18820;SDS011;9539;59.332;18.034;2023-04-03T08:33:13;10.52;;;2.13;;
18820;SDS011;9539;59.332;18.034;2023-04-03T08:35:38;6.85;;;2.05;;
18820;SDS011;9539;59.332;18.034;2023-04-03T08:38:00;8.00;;;2.15;;
18820;SDS011;9539;59.332;18.034;2023-04-03T08:40:22;7.50;;;1.95;;
18820;SDS011;9539;59.332;18.034;2023-04-03T08:42:47;12.27;;;2.20;;
18820;SDS011;9539;59.332;18.034;2023-04-03T08:45:14;4.10;;;1.95;;
18820;SDS011;9539;59.332;18.034;2023-04-03T08:47:38;7.90;;;1.92;;
18820;SDS011;9539;59.332;18.034;2023-04-03T08:50:00;4.65;;;1.92;;
18820;SDS011;9539;59.332;18.034;2023-04-03T08:52:24;9.35;;;2.20;;
18820;SDS011;9539;59.332;18.034;2023-04-03T08:54:50;6.00;;;2.03;;
18820;SDS011;9539;59.332;18.034;2023-04-03T08:57:12;4.20;;;1.60;;
18820;SDS011;9539;59.332;18.034;2023-04-03T08:59:34;6.35;;;1.45;;
18820;SDS011;9539;59.332;18.034;2023-04-03T09:01:58;6.50;;;1.73;;
18820;SDS011;9539;59.332;18.034;2023-04-03T09:04:22;17.95;;;2.30;;
18820;SDS011;9539;59.332;18.034;2023-04-03T09:06:44;6.40;;;1.80;;
18820;SDS011;9539;59.332;18.034;2023-04-03T09:09:11;15.13;;;2.08;;
18820;SDS011;9539;59.332;18.034;2023-04-03T09:11:36;19.55;;;2.65;;
18820;SDS011;9539;59.332;18.034;2023-04-03T09:14:02;62.15;;;5.03;;
18820;SDS011;9539;59.332;18.034;2023-04-03T09:16:28;39.70;;;3.00;;
18820;SDS011;9539;59.332;18.034;2023-04-03T09:18:55;13.75;;;2.35;;
18820;SDS011;9539;59.332;18.034;2023-04-03T09:21:19;17.70;;;2.33;;
18820;SDS011;9539;59.332;18.034;2023-04-03T09:23:43;9.88;;;1.67;;
18820;SDS011;9539;59.332;18.034;2023-04-03T09:26:06;11.80;;;1.65;;
18820;SDS011;9539;59.332;18.034;2023-04-03T09:28:29;10.10;;;2.30;;
18820;SDS011;9539;59.332;18.034;2023-04-03T09:30:52;11.80;;;2.03;;
18820;SDS011;9539;59.332;18.034;2023-04-03T09:33:14;5.78;;;1.70;;
18820;SDS011;9539;59.332;18.034;2023-04-03T09:35:38;12.60;;;3.03;;
18820;SDS011;9539;59.332;18.034;2023-04-03T09:38:02;6.85;;;1.90;;
18820;SDS011;9539;59.332;18.034;2023-04-03T09:40:36;8.25;;;1.90;;
18820;SDS011;9539;59.332;18.034;2023-04-03T09:42:59;6.28;;;1.98;;
18820;SDS011;9539;59.332;18.034;2023-04-03T09:45:21;27.63;;;3.20;;
18820;SDS011;9539;59.332;18.034;2023-04-03T09:47:43;22.90;;;2.63;;
18820;SDS011;9539;59.332;18.034;2023-04-03T09:50:15;11.48;;;2.30;;
18820;SDS011;9539;59.332;18.034;2023-04-03T09:52:40;17.85;;;3.03;;
18820;SDS011;9539;59.332;18.034;2023-04-03T09:55:06;12.98;;;2.60;;
18820;SDS011;9539;59.332;18.034;2023-04-03T09:57:32;15.10;;;2.70;;
18820;SDS011;9539;59.332;18.034;2023-04-03T09:59:56;19.27;;;2.65;;
18820;SDS011;9539;59.332;18.034;2023-04-03T10:02:23;20.70;;;2.75;;
18820;SDS011;9539;59.332;18.034;2023-04-03T10:04:49;21.73;;;2.72;;
18820;SDS011;9539;59.332;18.034;2023-04-03T10:07:27;8.02;;;1.80;;
18820;SDS011;9539;59.332;18.034;2023-04-03T10:09:55;25.08;;;2.85;;
18820;SDS011;9539;59.332;18.034;2023-04-03T10:12:17;16.27;;;1.77;;
18820;SDS011;9539;59.332;18.034;2023-04-03T10:14:54;15.32;;;2.60;;
18820;SDS011;9539;59.332;18.034;2023-04-03T10:17:16;10.63;;;2.33;;
18820;SDS011;9539;59.332;18.034;2023-04-03T10:19:40;11.45;;;2.00;;
18820;SDS011;9539;59.332;18.034;2023-04-03T10:22:03;21.42;;;1.90;;
18820;SDS011;9539;59.332;18.034;2023-04-03T10:24:28;9.20;;;1.80;;
18820;SDS011;9539;59.332;18.034;2023-04-03T10:26:54;11.85;;;2.55;;
18820;SDS011;9539;59.332;18.034;2023-04-03T10:29:24;22.80;;;2.65;;
18820;SDS011;9539;59.332;18.034;2023-04-03T10:31:50;20.63;;;2.72;;
18820;SDS011;9539;59.332;18.034;2023-04-03T10:34:17;9.43;;;2.00;;
18820;SDS011;9539;59.332;18.034;2023-04-03T10:36:42;5.97;;;2.13;;
18820;SDS011;9539;59.332;18.034;2023-04-03T10:39:08;11.07;;;1.80;;
18820;SDS011;9539;59.332;18.034;2023-04-03T10:41:35;17.48;;;2.58;;
18820;SDS011;9539;59.332;18.034;2023-04-03T10:44:02;21.10;;;2.25;;
18820;SDS011;9539;59.332;18.034;2023-04-03T10:46:27;5.97;;;1.90;;
18820;SDS011;9539;59.332;18.034;2023-04-03T10:48:55;6.35;;;1.75;;
18820;SDS011;9539;59.332;18.034;2023-04-03T10:51:23;9.82;;;1.85;;
18820;SDS011;9539;59.332;18.034;2023-04-03T10:53:49;13.77;;;2.40;;
18820;SDS011;9539;59.332;18.034;2023-04-03T10:56:15;7.88;;;2.05;;
18820;SDS011;9539;59.332;18.034;2023-04-03T10:58:38;22.92;;;2.83;;
18820;SDS011;9539;59.332;18.034;2023-04-03T11:01:05;8.80;;;1.85;;
18820;SDS011;9539;59.332;18.034;2023-04-03T11:03:29;8.15;;;1.70;;
18820;SDS011;9539;59.332;18.034;2023-04-03T11:05:53;7.50;;;1.77;;
18820;SDS011;9539;59.332;18.034;2023-04-03T11:08:19;7.72;;;1.85;;
18820;SDS011;9539;59.332;18.034;2023-04-03T11:10:44;14.55;;;1.85;;
18820;SDS011;9539;59.332;18.034;2023-04-03T11:13:08;12.85;;;2.13;;
18820;SDS011;9539;59.332;18.034;2023-04-03T11:15:32;13.90;;;1.88;;
18820;SDS011;9539;59.332;18.034;2023-04-03T11:17:57;10.02;;;1.80;;
18820;SDS011;9539;59.332;18.034;2023-04-03T11:20:21;5.55;;;1.38;;
18820;SDS011;9539;59.332;18.034;2023-04-03T11:22:48;15.52;;;1.83;;
18820;SDS011;9539;59.332;18.034;2023-04-03T11:25:14;11.82;;;1.60;;
18820;SDS011;9539;59.332;18.034;2023-04-03T11:27:40;6.60;;;1.40;;
18820;SDS011;9539;59.332;18.034;2023-04-03T11:30:05;5.85;;;2.05;;
18820;SDS011;9539;59.332;18.034;2023-04-03T11:32:40;8.05;;;1.77;;
18820;SDS011;9539;59.332;18.034;2023-04-03T11:35:06;10.07;;;2.20;;
18820;SDS011;9539;59.332;18.034;2023-04-03T11:37:30;6.70;;;1.80;;
18820;SDS011;9539;59.332;18.034;2023-04-03T11:39:54;7.32;;;1.77;;
18820;SDS011;9539;59.332;18.034;2023-04-03T11:42:21;11.05;;;1.92;;
18820;SDS011;9539;59.332;18.034;2023-04-03T11:44:44;20.02;;;2.17;;
18820;SDS011;9539;59.332;18.034;2023-04-03T11:47:06;6.80;;;1.80;;
18820;SDS011;9539;59.332;18.034;2023-04-03T11:52:10;4.60;;;1.35;;
18820;SDS011;9539;59.332;18.034;2023-04-03T11:59:51;5.82;;;1.20;;
18820;SDS011;9539;59.332;18.034;2023-04-03T12:07:27;7.03;;;1.38;;
18820;SDS011;9539;59.332;18.034;2023-04-03T12:12:26;2.00;;;1.17;;
18820;SDS011;9539;59.332;18.034;2023-04-03T12:14:48;6.45;;;1.27;;
18820;SDS011;9539;59.332;18.034;2023-04-03T12:17:16;3.08;;;1.33;;
18820;SDS011;9539;59.332;18.034;2023-04-03T12:19:39;4.32;;;1.40;;
18820;SDS011;9539;59.332;18.034;2023-04-03T12:22:05;5.47;;;1.33;;
18820;SDS011;9539;59.332;18.034;2023-04-03T12:24:30;4.72;;;1.10;;
18820;SDS011;9539;59.332;18.034;2023-04-03T12:27:01;5.15;;;1.30;;
18820;SDS011;9539;59.332;18.034;2023-04-03T12:29:23;2.80;;;1.10;;
18820;SDS011;9539;59.332;18.034;2023-04-03T12:31:52;2.80;;;1.30;;
18820;SDS011;9539;59.332;18.034;2023-04-03T12:34:21;6.85;;;1.33;;
18820;SDS011;9539;59.332;18.034;2023-04-03T12:36:48;3.10;;;1.33;;
18820;SDS011;9539;59.332;18.034;2023-04-03T12:39:21;9.43;;;1.58;;
18820;SDS011;9539;59.332;18.034;2023-04-03T12:41:50;6.55;;;1.20;;
18820;SDS011;9539;59.332;18.034;2023-04-03T12:47:00;9.88;;;1.48;;
18820;SDS011;9539;59.332;18.034;2023-04-03T12:49:33;2.65;;;1.13;;
18820;SDS011;9539;59.332;18.034;2023-04-03T12:51:56;5.60;;;1.30;;
18820;SDS011;9539;59.332;18.034;2023-04-03T12:54:19;8.00;;;1.30;;
18820;SDS011;9539;59.332;18.034;2023-04-03T12:56:43;1.38;;;1.08;;
18820;SDS011;9539;59.332;18.034;2023-04-03T12:59:17;7.93;;;1.40;;
18820;SDS011;9539;59.332;18.034;2023-04-03T13:01:40;1.95;;;1.00;;
18820;SDS011;9539;59.332;18.034;2023-04-03T13:04:01;1.38;;;1.20;;
18820;SDS011;9539;59.332;18.034;2023-04-03T13:06:25;2.63;;;1.10;;
18820;SDS011;9539;59.332;18.034;2023-04-03T13:08:51;1.70;;;1.10;;
18820;SDS011;9539;59.332;18.034;2023-04-03T13:11:13;6.85;;;1.20;;
18820;SDS011;9539;59.332;18.034;2023-04-03T13:13:36;9.13;;;1.20;;
18820;SDS011;9539;59.332;18.034;2023-04-03T13:16:00;8.05;;;1.30;;
18820;SDS011;9539;59.332;18.034;2023-04-03T13:18:30;3.95;;;1.20;;
18820;SDS011;9539;59.332;18.034;2023-04-03T13:20:53;1.67;;;1.08;;
18820;SDS011;9539;59.332;18.034;2023-04-03T13:23:15;9.48;;;1.65;;
18820;SDS011;9539;59.332;18.034;2023-04-03T13:25:40;6.65;;;1.40;;
18820;SDS011;9539;59.332;18.034;2023-04-03T13:28:05;4.07;;;1.38;;
18820;SDS011;9539;59.332;18.034;2023-04-03T13:30:28;8.13;;;2.17;;
18820;SDS011;9539;59.332;18.034;2023-04-03T13:32:51;15.50;;;1.85;;
18820;SDS011;9539;59.332;18.034;2023-04-03T13:35:30;5.70;;;1.30;;
18820;SDS011;9539;59.332;18.034;2023-04-03T13:37:56;2.55;;;1.10;;
18820;SDS011;9539;59.332;18.034;2023-04-03T13:40:18;3.00;;;1.10;;
18820;SDS011;9539;59.332;18.034;2023-04-03T13:42:40;4.35;;;1.25;;
18820;SDS011;9539;59.332;18.034;2023-04-03T13:45:16;2.50;;;1.20;;
18820;SDS011;9539;59.332;18.034;2023-04-03T13:47:40;2.15;;;1.23;;
18820;SDS011;9539;59.332;18.034;2023-04-03T13:50:04;6.13;;;1.40;;
18820;SDS011;9539;59.332;18.034;2023-04-03T13:52:38;5.75;;;1.40;;
18820;SDS011;9539;59.332;18.034;2023-04-03T13:55:01;4.50;;;1.25;;
18820;SDS011;9539;59.332;18.034;2023-04-03T13:57:24;1.33;;;1.13;;
18820;SDS011;9539;59.332;18.034;2023-04-03T13:59:45;3.97;;;1.40;;
18820;SDS011;9539;59.332;18.034;2023-04-03T14:02:12;7.88;;;1.40;;
18820;SDS011;9539;59.332;18.034;2023-04-03T14:04:44;12.65;;;1.60;;
18820;SDS011;9539;59.332;18.034;2023-04-03T14:07:09;5.63;;;1.20;;
18820;SDS011;9539;59.332;18.034;2023-04-03T14:09:30;5.15;;;1.60;;
18820;SDS011;9539;59.332;18.034;2023-04-03T14:11:53;7.75;;;1.58;;
18820;SDS011;9539;59.332;18.034;2023-04-03T14:14:15;3.42;;;1.60;;
18820;SDS011;9539;59.332;18.034;2023-04-03T14:16:38;9.77;;;1.77;;
18820;SDS011;9539;59.332;18.034;2023-04-03T14:19:00;11.02;;;1.80;;
18820;SDS011;9539;59.332;18.034;2023-04-03T14:21:22;5.88;;;1.50;;
18820;SDS011;9539;59.332;18.034;2023-04-03T14:23:46;5.68;;;1.55;;
18820;SDS011;9539;59.332;18.034;2023-04-03T14:26:09;4.20;;;1.20;;
18820;SDS011;9539;59.332;18.034;2023-04-03T14:28:31;15.40;;;1.73;;
18820;SDS011;9539;59.332;18.034;2023-04-03T14:30:53;11.30;;;1.75;;
18820;SDS011;9539;59.332;18.034;2023-04-03T14:33:16;15.73;;;2.13;;
18820;SDS011;9539;59.332;18.034;2023-04-03T14:35:38;16.30;;;1.88;;
18820;SDS011;9539;59.332;18.034;2023-04-03T14:37:59;6.05;;;1.60;;